Biggs Army Air Field (Fort Bliss)
KBIF : now visible

Airfield :











YOU CAN JOIN US ON...

 
LOGIN :

Register | Disclaimer

   EN    FR    IT 

 









Legend :    VFR   Marginal VFR   IFR   Intensive IFR   Very Intensive IFR
Visi :
Ceiling :
>= 8 km
>= 3000ft
5 to 8 km
1000 to 3000 ft
1500m to 5 km
500 to 1000 ft
800 to 1500m
200 to 500 ft
< 800m
< 200 ft
Symbols :   Thunderstorms  Fog  Heavy snow  Heavy precipitations  Wind > 20 kt






- Airport Elevation : 3946 ft


KBIF - Biggs Army Air Field (Fort Bliss)

CURRENT METAR :
  • 220658Z AUTO 14007KT 10SM FEW070 BKN085 OVC100 09/06 A3009 RMK AO2 SLP153 T00860064 $

EXPIRED METARs :
  • 220558Z AUTO 14005KT 10SM SCT065 OVC080 09/07 A3009 RMK AO2 RAE08 SLP156 P0000 60000 T00900066 10114 20087 402020073 51015 $
  • 220508Z AUTO 14004KT 9SM SCT050 BKN100 09/06 A3008 RMK AO2 RAE08 SLP155 $
  • 220458Z AUTO 15006KT 8SM -RA BKN050 BKN070 OVC080 10/06 A3008 RMK AO2 RAB42 CIG 048 RWY03 SLP152 P0000 T00960064 $
  • 220442Z AUTO 18005KT 10SM -RA SCT060 OVC080 10/06 A3008 RMK AO2 RAB42 CIG 060 RWY03 SLP155 $

TAF AMD TAF KBIF
Valid from the 21 at 22:00 until the 23 at 04:00 UTC


212245Z 2122/2304 28015G25KT 8000 -SHRA BKN040 520009 QNH2994INS
TEMPO 2122/2201 VRB20G35KT -TSRA BKN040CB
BECMG 2203/2204 VRB06KT 9999 NSW BKN025 QNH3005INS
BECMG 2211/2212 VRB06KT 9999 FEW250 QNH3008INS TX16/2122Z TN04/2213Z



MET'MAP, your aeronautical weather chart ! - Copyright ORBIFLY December 2007 - Disclaimer

ORBIFLY MET'MAP TEAM :

Programming & Development : Alexandra Zaïnal
Concept & Development : Baudouin d'Aumeries
Co-Development & Prog : Marc-Olivier Méhu
Technical & hardware support : Manuel Goepfert

Contact : metmap@orbifly.com




SOURCES & CREDITS :

   NOAA       Earth
Advisory